Time;durP1;ratioP1;P1;durP2;ratioP2;P2;SDS_P1;SDS_P2;PMS_P1;PMS_P2;Temp;Humidity;BMP_temperature;BMP_pressure;BME280_temperature;BME280_humidity;BME280_pressure;Samples;Min_cycle;Max_cycle;Signal;HPM_P1;HPM_P2
2023/01/03 00:00:03;;;;;;;0.63;0.63;;;;;;;;;;5022838;28;20249;-91
2023/01/03 00:02:31;;;;;;;2.37;1.27;;;;;;;;;;5019624;28;20315;-89
2023/01/03 00:05:05;;;;;;;0.70;0.70;;;;;;;;;;5021793;28;20222;-89
2023/01/03 00:07:42;;;;;;;2.33;1.37;;;;;;;;;;5027496;28;20200;-88
2023/01/03 00:10:12;;;;;;;0.63;0.63;;;;;;;;;;5025385;28;20239;-87
2023/01/03 00:12:48;;;;;;;0.80;0.80;;;;;;;;;;5023149;28;20209;-91
2023/01/03 00:18:00;;;;;;;0.67;0.67;;;;;;;;;;5029579;28;20695;-91
2023/01/03 00:20:31;;;;;;;0.70;0.60;;;;;;;;;;5041284;28;20215;-89
2023/01/03 00:23:03;;;;;;;0.73;0.73;;;;;;;;;;5049639;28;20220;-90
2023/01/03 00:25:45;;;;;;;0.73;0.73;;;;;;;;;;5050800;28;20196;-91
2023/01/03 00:28:17;;;;;;;1.03;1.03;;;;;;;;;;5056122;28;20204;-89
2023/01/03 00:30:51;;;;;;;2.83;0.90;;;;;;;;;;5058587;28;20248;-91
2023/01/03 00:33:19;;;;;;;1.60;0.57;;;;;;;;;;5058934;28;20180;-91
2023/01/03 00:35:52;;;;;;;2.23;1.10;;;;;;;;;;5057871;28;20183;-90
2023/01/03 00:38:23;;;;;;;0.80;0.80;;;;;;;;;;5054630;28;20236;-88
2023/01/03 00:40:52;;;;;;;1.60;1.53;;;;;;;;;;5053768;28;20192;-91
2023/01/03 00:43:31;;;;;;;0.63;0.63;;;;;;;;;;5040591;28;20307;-90
2023/01/03 00:45:59;;;;;;;2.37;1.80;;;;;;;;;;5039431;28;20199;-89
2023/01/03 00:48:36;;;;;;;1.17;1.17;;;;;;;;;;5037963;28;20211;-90
2023/01/03 00:51:10;;;;;;;0.87;0.87;;;;;;;;;;5038722;28;20200;-91
2023/01/03 00:53:41;;;;;;;1.37;1.37;;;;;;;;;;5040052;28;20185;-89
2023/01/03 00:56:14;;;;;;;1.40;1.27;;;;;;;;;;5039298;28;20278;-90
2023/01/03 00:58:42;;;;;;;0.40;0.40;;;;;;;;;;5040067;28;20224;-89
2023/01/03 01:01:11;;;;;;;0.83;0.83;;;;;;;;;;5044263;28;20199;-90
2023/01/03 01:03:46;;;;;;;0.90;0.90;;;;;;;;;;5057997;28;21259;-90
2023/01/03 01:06:15;;;;;;;8.77;2.33;;;;;;;;;;5058214;28;20214;-90
2023/01/03 01:08:43;;;;;;;5.90;1.37;;;;;;;;;;5055478;28;20220;-92
2023/01/03 01:11:28;;;;;;;1.50;1.10;;;;;;;;;;5047524;28;20223;-90
2023/01/03 01:13:59;;;;;;;2.13;1.97;;;;;;;;;;5039289;28;20200;-91
2023/01/03 01:16:29;;;;;;;2.90;2.50;;;;;;;;;;5039291;28;20199;-90
2023/01/03 01:19:04;;;;;;;0.73;0.73;;;;;;;;;;5038134;28;20203;-89
2023/01/03 01:21:35;;;;;;;0.80;0.63;;;;;;;;;;5038074;28;20203;-91
2023/01/03 01:24:06;;;;;;;0.47;0.47;;;;;;;;;;5037902;28;20219;-90
2023/01/03 01:26:38;;;;;;;0.50;0.50;;;;;;;;;;5036773;28;20199;-90
2023/01/03 01:29:07;;;;;;;0.43;0.43;;;;;;;;;;5037645;28;20604;-90
2023/01/03 01:31:40;;;;;;;0.47;0.47;;;;;;;;;;5037682;28;20200;-90
2023/01/03 01:34:08;;;;;;;0.77;0.67;;;;;;;;;;5037609;28;20207;-91
2023/01/03 01:36:38;;;;;;;0.67;0.53;;;;;;;;;;5038759;28;20204;-90
2023/01/03 01:39:09;;;;;;;0.23;0.23;;;;;;;;;;5037861;28;20367;-92
2023/01/03 01:44:47;;;;;;;1.10;0.77;;;;;;;;;;5040009;28;20196;-90
2023/01/03 01:47:25;;;;;;;0.70;0.70;;;;;;;;;;5038377;28;20200;-90
2023/01/03 01:49:56;;;;;;;0.10;0.10;;;;;;;;;;5040120;28;20241;-90
2023/01/03 01:52:25;;;;;;;3.87;0.77;;;;;;;;;;5039828;28;20346;-90
2023/01/03 01:55:02;;;;;;;0.17;0.17;;;;;;;;;;5037993;28;20208;-92
2023/01/03 01:57:35;;;;;;;3.50;1.60;;;;;;;;;;5037305;28;20204;-90
2023/01/03 02:00:04;;;;;;;1.80;1.10;;;;;;;;;;5038033;28;20200;-90
2023/01/03 02:02:33;;;;;;;1.40;1.40;;;;;;;;;;5037456;28;20710;-91
2023/01/03 02:05:07;;;;;;;0.57;0.57;;;;;;;;;;5036790;28;20227;-91
2023/01/03 02:07:37;;;;;;;1.20;1.20;;;;;;;;;;5037570;28;20287;-91
2023/01/03 02:10:09;;;;;;;0.67;0.67;;;;;;;;;;5037767;28;20254;-90
2023/01/03 02:15:52;;;;;;;0.80;0.80;;;;;;;;;;4994654;28;20196;-89
2023/01/03 02:18:33;;;;;;;0.57;0.57;;;;;;;;;;5054004;28;20275;-90
2023/01/03 02:24:17;;;;;;;0.80;0.80;;;;;;;;;;5023302;28;20203;-89
2023/01/03 02:27:02;;;;;;;0.93;0.93;;;;;;;;;;5048408;28;20207;-89
2023/01/03 02:30:00;;;;;;;0.20;0.20;;;;;;;;;;5037151;28;20215;-89
2023/01/03 02:32:36;;;;;;;0.67;0.67;;;;;;;;;;5036802;28;20665;-90
2023/01/03 02:35:09;;;;;;;1.20;0.53;;;;;;;;;;5036959;28;20210;-91
2023/01/03 02:37:40;;;;;;;0.37;0.37;;;;;;;;;;5036738;28;20286;-88
2023/01/03 02:43:04;;;;;;;2.10;1.33;;;;;;;;;;5042658;22;20250;-91
2023/01/03 02:45:39;;;;;;;0.93;0.93;;;;;;;;;;5036192;28;20272;-90
2023/01/03 02:48:18;;;;;;;0.90;0.67;;;;;;;;;;5036703;28;20203;-90
2023/01/03 02:50:48;;;;;;;0.90;0.90;;;;;;;;;;5036047;28;20657;-90
2023/01/03 02:53:18;;;;;;;1.70;0.90;;;;;;;;;;5036392;28;20283;-91
2023/01/03 02:55:48;;;;;;;0.13;0.13;;;;;;;;;;5036510;28;20246;-89
2023/01/03 02:58:18;;;;;;;0.30;0.30;;;;;;;;;;5036445;28;20223;-90
2023/01/03 03:00:51;;;;;;;1.13;1.03;;;;;;;;;;5036300;28;20240;-90
2023/01/03 03:03:22;;;;;;;3.83;1.10;;;;;;;;;;5036297;28;20289;-92
2023/01/03 03:05:52;;;;;;;0.70;0.70;;;;;;;;;;5036366;28;20210;-91
2023/01/03 03:08:23;;;;;;;0.60;0.60;;;;;;;;;;5036150;28;20204;-90
2023/01/03 03:13:37;;;;;;;0.70;0.60;;;;;;;;;;5017181;28;20192;-92
2023/01/03 03:16:08;;;;;;;1.33;1.00;;;;;;;;;;5017269;28;20300;-91
2023/01/03 03:18:43;;;;;;;0.63;0.63;;;;;;;;;;5015916;28;20207;-89
2023/01/03 03:28:33;;;;;;;1.10;1.10;;;;;;;;;;5015869;28;20205;-90
2023/01/03 03:29:52;;;;;;;0.73;0.73;;;;;;;;;;5016291;28;20192;-90
2023/01/03 03:32:20;;;;;;;1.13;1.13;;;;;;;;;;5017151;28;20251;-90
2023/01/03 03:34:57;;;;;;;1.30;1.30;;;;;;;;;;5016357;28;20205;-90
2023/01/03 03:37:27;;;;;;;0.10;0.10;;;;;;;;;;5016200;28;20411;-91
2023/01/03 03:45:36;;;;;;;0.80;0.80;;;;;;;;;;5028611;28;20216;-90
2023/01/03 03:48:10;;;;;;;1.13;0.67;;;;;;;;;;5035695;28;20252;-91
2023/01/03 03:50:43;;;;;;;5.23;1.13;;;;;;;;;;5022086;28;20203;-91
2023/01/03 03:53:13;;;;;;;1.50;1.50;;;;;;;;;;5020733;28;20206;-92
2023/01/03 03:55:48;;;;;;;1.47;1.47;;;;;;;;;;5031335;28;20481;-89
2023/01/03 03:58:18;;;;;;;4.77;1.60;;;;;;;;;;5033615;28;20227;-89
2023/01/03 04:00:49;;;;;;;0.20;0.20;;;;;;;;;;5026212;28;20467;-89
2023/01/03 04:03:29;;;;;;;1.73;1.37;;;;;;;;;;5034422;28;20232;-90
2023/01/03 04:06:04;;;;;;;0.57;0.50;;;;;;;;;;5030997;28;20275;-90
2023/01/03 04:08:35;;;;;;;1.60;1.57;;;;;;;;;;5032254;28;20192;-90
2023/01/03 04:11:05;;;;;;;1.00;0.97;;;;;;;;;;5035749;28;20231;-89
2023/01/03 04:13:39;;;;;;;1.27;1.07;;;;;;;;;;5035946;28;20191;-90
2023/01/03 04:16:07;;;;;;;9.23;1.07;;;;;;;;;;5035566;28;20243;-91
2023/01/03 04:18:41;;;;;;;1.20;1.13;;;;;;;;;;5035326;28;20399;-91
2023/01/03 04:21:11;;;;;;;0.57;0.57;;;;;;;;;;5035505;28;20183;-90
2023/01/03 04:23:47;;;;;;;2.57;1.97;;;;;;;;;;5035625;28;20236;-90
2023/01/03 04:26:21;;;;;;;0.50;0.50;;;;;;;;;;5035844;28;20192;-89
2023/01/03 04:28:49;;;;;;;4.37;1.23;;;;;;;;;;5035502;28;20180;-89
2023/01/03 04:31:19;;;;;;;0.57;0.57;;;;;;;;;;5035512;28;20205;-91
2023/01/03 04:33:47;;;;;;;4.13;2.27;;;;;;;;;;5034381;28;20260;-90
2023/01/03 04:36:23;;;;;;;2.23;1.73;;;;;;;;;;5035246;28;20197;-91
2023/01/03 04:38:51;;;;;;;0.87;0.87;;;;;;;;;;5035052;28;20240;-91
2023/01/03 04:41:22;;;;;;;2.20;1.43;;;;;;;;;;5024118;28;20229;-90
2023/01/03 04:44:03;;;;;;;4.53;1.13;;;;;;;;;;5022226;28;20729;-90
2023/01/03 04:46:32;;;;;;;2.20;1.20;;;;;;;;;;5034181;28;20201;-90
2023/01/03 04:49:03;;;;;;;2.73;2.43;;;;;;;;;;5031029;28;20205;-90
2023/01/03 04:51:36;;;;;;;1.07;1.07;;;;;;;;;;5034702;28;20208;-92
2023/01/03 04:54:09;;;;;;;1.07;1.07;;;;;;;;;;5038947;28;20271;-91
2023/01/03 04:56:39;;;;;;;0.57;0.57;;;;;;;;;;5047156;28;20260;-89
2023/01/03 04:59:06;;;;;;;5.37;1.93;;;;;;;;;;5032960;28;20184;-89
2023/01/03 05:01:50;;;;;;;1.93;1.83;;;;;;;;;;5030661;28;20205;-91
2023/01/03 05:04:19;;;;;;;1.27;1.20;;;;;;;;;;5028980;28;20224;-91
2023/01/03 05:06:53;;;;;;;0.77;0.77;;;;;;;;;;5027260;28;20204;-89
2023/01/03 05:09:26;;;;;;;3.57;1.53;;;;;;;;;;5048416;28;20326;-90
2023/01/03 05:11:55;;;;;;;1.77;1.20;;;;;;;;;;5048093;28;20206;-90
2023/01/03 05:14:23;;;;;;;2.93;2.67;;;;;;;;;;5028507;28;20713;-89
2023/01/03 05:16:51;;;;;;;1.07;1.07;;;;;;;;;;5025117;28;20180;-90
2023/01/03 05:19:21;;;;;;;1.43;1.43;;;;;;;;;;5025712;28;20213;-89
2023/01/03 05:27:26;;;;;;;5.13;1.33;;;;;;;;;;5038008;28;20200;-89
2023/01/03 05:29:56;;;;;;;1.10;1.10;;;;;;;;;;5029128;28;20200;-91
2023/01/03 05:32:26;;;;;;;1.60;0.60;;;;;;;;;;5025190;28;20278;-89
2023/01/03 05:34:54;;;;;;;1.40;1.30;;;;;;;;;;5026930;28;20255;-89
2023/01/03 05:37:27;;;;;;;1.67;1.57;;;;;;;;;;5025779;28;20199;-90
2023/01/03 05:40:00;;;;;;;1.20;1.13;;;;;;;;;;5028029;28;20193;-90
2023/01/03 05:42:27;;;;;;;1.13;1.13;;;;;;;;;;5015349;28;20231;-90
2023/01/03 05:44:55;;;;;;;2.80;1.23;;;;;;;;;;5018070;28;20212;-91
2023/01/03 05:47:26;;;;;;;0.80;0.80;;;;;;;;;;5017605;28;20199;-91
2023/01/03 05:49:59;;;;;;;1.80;1.70;;;;;;;;;;5019030;28;20664;-91
2023/01/03 05:52:29;;;;;;;1.70;1.60;;;;;;;;;;5019797;28;20619;-91
2023/01/03 05:54:59;;;;;;;1.33;1.33;;;;;;;;;;5018280;28;20264;-92
2023/01/03 05:57:29;;;;;;;2.87;1.17;;;;;;;;;;5015729;28;20200;-90
2023/01/03 05:59:58;;;;;;;1.17;0.93;;;;;;;;;;5017393;28;20540;-89
2023/01/03 06:02:26;;;;;;;3.30;2.40;;;;;;;;;;5018140;28;20215;-89
2023/01/03 06:04:53;;;;;;;1.33;1.23;;;;;;;;;;5028900;28;20220;-90
2023/01/03 06:07:21;;;;;;;0.67;0.67;;;;;;;;;;5034295;28;20277;-90
2023/01/03 06:09:53;;;;;;;1.50;1.50;;;;;;;;;;5041649;28;20283;-89
2023/01/03 06:12:24;;;;;;;1.43;1.33;;;;;;;;;;5023263;28;20215;-92
2023/01/03 06:14:54;;;;;;;0.53;0.53;;;;;;;;;;5017742;28;20660;-91
2023/01/03 06:20:10;;;;;;;1.47;1.37;;;;;;;;;;4998236;28;20657;-90
2023/01/03 06:22:47;;;;;;;1.70;1.57;;;;;;;;;;5000224;28;20201;-91
2023/01/03 06:25:24;;;;;;;3.80;1.43;;;;;;;;;;5002346;28;20211;-92
2023/01/03 06:27:55;;;;;;;0.67;0.67;;;;;;;;;;5000006;28;20718;-92
2023/01/03 06:30:26;;;;;;;1.00;1.00;;;;;;;;;;4998501;28;20201;-91
2023/01/03 06:32:55;;;;;;;1.00;1.00;;;;;;;;;;4997663;28;20217;-92
2023/01/03 06:35:32;;;;;;;1.93;1.83;;;;;;;;;;4997753;28;20216;-91
2023/01/03 06:38:03;;;;;;;2.33;1.60;;;;;;;;;;4998414;28;20237;-91
2023/01/03 06:40:34;;;;;;;2.27;2.07;;;;;;;;;;4998150;28;20205;-91
2023/01/03 06:43:03;;;;;;;2.00;2.00;;;;;;;;;;5000517;28;20208;-92
2023/01/03 06:53:49;;;;;;;2.63;2.43;;;;;;;;;;5016397;28;20224;-90
2023/01/03 06:56:24;;;;;;;1.30;1.30;;;;;;;;;;5017438;28;20590;-92
2023/01/03 06:58:57;;;;;;;1.83;1.43;;;;;;;;;;5021467;28;20248;-90
2023/01/03 07:01:26;;;;;;;1.00;1.00;;;;;;;;;;5020465;28;20973;-91
2023/01/03 07:03:54;;;;;;;1.50;1.47;;;;;;;;;;5018837;28;20220;-90
2023/01/03 07:06:22;;;;;;;6.13;1.17;;;;;;;;;;5020261;28;20228;-89
2023/01/03 07:08:51;;;;;;;1.13;1.13;;;;;;;;;;5016208;28;20277;-91
2023/01/03 07:11:33;;;;;;;0.90;0.90;;;;;;;;;;5015588;28;20295;-90
2023/01/03 07:14:03;;;;;;;1.30;0.93;;;;;;;;;;5014313;28;20200;-91
2023/01/03 07:16:34;;;;;;;4.00;2.23;;;;;;;;;;5011808;28;20189;-90
2023/01/03 07:19:14;;;;;;;4.43;3.40;;;;;;;;;;5015173;28;20204;-91
2023/01/03 07:21:48;;;;;;;5.83;3.87;;;;;;;;;;5014646;28;20231;-91
2023/01/03 07:24:22;;;;;;;2.73;2.50;;;;;;;;;;5020291;28;20280;-92
2023/01/03 07:26:54;;;;;;;5.80;3.13;;;;;;;;;;5028389;28;20200;-91
2023/01/03 07:29:35;;;;;;;9.07;2.90;;;;;;;;;;5030580;28;20201;-91
2023/01/03 07:32:08;;;;;;;9.03;3.50;;;;;;;;;;5036211;28;20207;-91
2023/01/03 07:34:37;;;;;;;4.70;4.03;;;;;;;;;;5019201;28;20200;-93
2023/01/03 07:37:09;;;;;;;5.13;3.50;;;;;;;;;;5017878;28;20276;-90
2023/01/03 07:39:37;;;;;;;9.90;3.17;;;;;;;;;;5033875;28;20210;-91
2023/01/03 07:45:17;;;;;;;9.40;3.60;;;;;;;;;;4975296;28;20228;-90
2023/01/03 07:47:53;;;;;;;4.10;3.50;;;;;;;;;;5010340;28;20202;-91
2023/01/03 07:50:35;;;;;;;9.13;3.90;;;;;;;;;;5007034;28;20216;-92
2023/01/03 07:53:03;;;;;;;4.90;4.43;;;;;;;;;;5023502;28;20568;-91
2023/01/03 07:55:32;;;;;;;7.23;5.03;;;;;;;;;;5015188;28;20247;-91
2023/01/03 07:58:07;;;;;;;8.23;4.50;;;;;;;;;;5014021;28;20231;-90
2023/01/03 08:00:39;;;;;;;3.43;2.53;;;;;;;;;;5014071;28;20230;-91
2023/01/03 08:03:15;;;;;;;8.17;3.27;;;;;;;;;;5014547;28;20243;-90
2023/01/03 08:05:43;;;;;;;4.90;3.60;;;;;;;;;;5014409;28;20209;-90
2023/01/03 08:08:14;;;;;;;3.87;3.60;;;;;;;;;;5028684;28;20193;-90
2023/01/03 08:16:45;;;;;;;2.97;2.73;;;;;;;;;;4999329;28;20198;-91
2023/01/03 08:19:24;;;;;;;7.80;4.33;;;;;;;;;;5024111;28;20181;-88
2023/01/03 08:21:52;;;;;;;9.87;4.40;;;;;;;;;;5014229;28;20292;-91
2023/01/03 08:24:24;;;;;;;7.47;3.00;;;;;;;;;;5014707;28;20228;-91
2023/01/03 08:26:58;;;;;;;9.57;3.83;;;;;;;;;;5014723;28;20196;-93
2023/01/03 08:29:30;;;;;;;5.70;3.70;;;;;;;;;;5010779;28;20605;-92
2023/01/03 08:32:16;;;;;;;4.50;4.10;;;;;;;;;;5016029;28;20586;-90
2023/01/03 08:35:06;;;;;;;6.63;4.33;;;;;;;;;;5015385;28;20208;-91
2023/01/03 08:37:39;;;;;;;4.03;3.73;;;;;;;;;;5020802;28;20198;-90
2023/01/03 08:40:13;;;;;;;6.73;3.97;;;;;;;;;;5021182;28;20237;-90
2023/01/03 08:45:45;;;;;;;4.60;4.10;;;;;;;;;;5019693;28;20254;-91
2023/01/03 08:48:13;;;;;;;3.77;3.27;;;;;;;;;;5022103;28;20292;-90
2023/01/03 08:50:48;;;;;;;3.70;3.20;;;;;;;;;;5028393;28;20196;-90
2023/01/03 08:53:18;;;;;;;5.33;4.83;;;;;;;;;;5026314;28;20200;-91
2023/01/03 08:56:03;;;;;;;5.63;4.03;;;;;;;;;;5020142;28;20215;-89
2023/01/03 08:58:32;;;;;;;2.67;2.40;;;;;;;;;;5018184;28;20618;-90
2023/01/03 09:01:16;;;;;;;4.97;4.53;;;;;;;;;;5019352;28;20203;-89
2023/01/03 09:03:45;;;;;;;4.97;4.63;;;;;;;;;;5003432;28;20232;-91
2023/01/03 09:06:24;;;;;;;5.73;3.23;;;;;;;;;;5020604;28;20189;-89
2023/01/03 09:08:54;;;;;;;4.60;3.47;;;;;;;;;;5014742;28;20218;-90
2023/01/03 09:11:22;;;;;;;5.97;5.27;;;;;;;;;;5023328;28;20263;-88
2023/01/03 09:13:50;;;;;;;4.57;4.17;;;;;;;;;;5020407;28;20232;-90
2023/01/03 09:16:17;;;;;;;6.17;4.13;;;;;;;;;;5017516;28;20240;-91
2023/01/03 09:21:37;;;;;;;6.23;4.63;;;;;;;;;;5012136;28;20324;-90
2023/01/03 09:24:11;;;;;;;6.47;4.03;;;;;;;;;;5018178;28;20708;-89
2023/01/03 09:26:39;;;;;;;3.47;3.27;;;;;;;;;;5022271;28;20199;-88
2023/01/03 09:29:07;;;;;;;8.07;4.63;;;;;;;;;;5022653;28;20236;-87
2023/01/03 09:31:36;;;;;;;8.33;4.13;;;;;;;;;;5022699;28;20208;-88
2023/01/03 09:34:04;;;;;;;4.63;3.70;;;;;;;;;;5022137;28;20201;-89
2023/01/03 09:36:33;;;;;;;9.87;3.40;;;;;;;;;;5017268;28;20835;-89
2023/01/03 09:39:03;;;;;;;4.83;3.80;;;;;;;;;;5016378;28;20253;-90
2023/01/03 09:41:31;;;;;;;3.23;3.00;;;;;;;;;;5015962;28;20260;-90
2023/01/03 09:44:00;;;;;;;5.13;2.87;;;;;;;;;;5021060;28;20226;-89
2023/01/03 09:46:30;;;;;;;3.83;3.43;;;;;;;;;;5018810;28;20235;-89
2023/01/03 09:48:58;;;;;;;4.40;4.10;;;;;;;;;;5019184;28;20263;-90
2023/01/03 10:05:36;;;;;;;3.95;3.05;;;;;;;;;;4962728;28;20246;-88
2023/01/03 10:08:22;;;;;;;5.47;4.82;;;;;;;;;;5029077;28;20216;-90
2023/01/03 10:11:00;;;;;;;6.53;4.65;;;;;;;;;;5030532;28;22101;-89
2023/01/03 10:13:31;;;;;;;5.28;4.78;;;;;;;;;;5021013;28;20704;-90
2023/01/03 10:16:05;;;;;;;9.95;4.57;;;;;;;;;;5015408;28;20226;-89
2023/01/03 10:18:43;;;;;;;9.40;6.80;;;;;;;;;;5015884;28;20713;-90
2023/01/03 10:21:13;;;;;;;4.75;4.03;;;;;;;;;;5015215;28;20294;-89
2023/01/03 10:23:44;;;;;;;9.38;6.30;;;;;;;;;;5015554;28;20286;-89
2023/01/03 10:26:14;;;;;;;11.38;4.97;;;;;;;;;;5012028;28;20214;-89
2023/01/03 10:28:47;;;;;;;11.27;7.30;;;;;;;;;;5027255;28;20239;-88
2023/01/03 10:31:21;;;;;;;8.68;5.53;;;;;;;;;;5023431;28;20229;-90
2023/01/03 10:33:49;;;;;;;6.75;6.20;;;;;;;;;;5016203;28;20730;-90
2023/01/03 10:36:21;;;;;;;6.45;5.95;;;;;;;;;;5016204;28;20234;-90
2023/01/03 10:39:04;;;;;;;13.05;5.28;;;;;;;;;;5019454;28;20219;-90
2023/01/03 10:41:43;;;;;;;7.63;6.38;;;;;;;;;;5017700;28;20246;-87
2023/01/03 10:44:22;;;;;;;8.38;6.32;;;;;;;;;;5021853;28;20769;-89
2023/01/03 10:46:58;;;;;;;6.90;6.00;;;;;;;;;;5012632;28;20222;-90
2023/01/03 10:49:27;;;;;;;6.43;5.13;;;;;;;;;;5015033;28;20636;-90
2023/01/03 10:51:56;;;;;;;5.18;4.13;;;;;;;;;;5011495;28;20227;-90
2023/01/03 10:54:25;;;;;;;7.97;6.28;;;;;;;;;;5015744;28;20237;-88
2023/01/03 10:56:55;;;;;;;6.65;4.78;;;;;;;;;;5013430;28;20216;-89
2023/01/03 10:59:23;;;;;;;17.77;6.55;;;;;;;;;;5018803;28;20238;-89
2023/01/03 11:02:01;;;;;;;7.22;5.43;;;;;;;;;;5021834;28;20204;-88
2023/01/03 11:04:30;;;;;;;8.52;5.20;;;;;;;;;;5010940;28;20309;-90
2023/01/03 11:07:00;;;;;;;6.82;6.15;;;;;;;;;;4996287;28;20218;-89
2023/01/03 11:09:29;;;;;;;8.88;6.10;;;;;;;;;;4995778;28;20255;-90
2023/01/03 11:12:07;;;;;;;6.28;5.78;;;;;;;;;;4996483;28;20246;-90
2023/01/03 11:14:37;;;;;;;14.15;7.07;;;;;;;;;;4994685;28;20232;-90
2023/01/03 11:17:10;;;;;;;7.90;5.82;;;;;;;;;;4995601;28;20785;-88
2023/01/03 11:19:41;;;;;;;9.35;4.65;;;;;;;;;;5004684;28;20223;-88
2023/01/03 11:22:12;;;;;;;6.28;5.78;;;;;;;;;;5016261;28;20202;-88
2023/01/03 11:24:55;;;;;;;7.47;6.60;;;;;;;;;;5016862;28;20237;-88
2023/01/03 11:27:31;;;;;;;9.40;6.35;;;;;;;;;;5000323;28;20236;-90
2023/01/03 11:30:07;;;;;;;6.75;6.00;;;;;;;;;;5010931;28;20226;-90
2023/01/03 11:32:43;;;;;;;8.98;3.88;;;;;;;;;;4978140;28;20311;-92
2023/01/03 11:35:18;;;;;;;7.13;5.35;;;;;;;;;;4976491;28;20784;-91
2023/01/03 11:37:57;;;;;;;7.07;5.80;;;;;;;;;;4985439;28;20215;-92
2023/01/03 11:43:34;;;;;;;9.05;7.45;;;;;;;;;;5031649;28;20225;-91
2023/01/03 11:46:10;;;;;;;8.85;5.75;;;;;;;;;;5034178;28;20239;-88
2023/01/03 11:48:45;;;;;;;6.80;6.35;;;;;;;;;;5017572;28;20226;-87
2023/01/03 11:51:16;;;;;;;11.98;7.22;;;;;;;;;;5016914;28;20218;-89
2023/01/03 11:53:52;;;;;;;6.80;5.80;;;;;;;;;;5000471;28;20223;-90
2023/01/03 11:56:28;;;;;;;6.35;5.32;;;;;;;;;;5027390;28;20232;-88
2023/01/03 11:59:14;;;;;;;9.80;5.97;;;;;;;;;;5022428;28;20609;-87
2023/01/03 12:02:13;;;;;;;9.82;6.20;;;;;;;;;;5015640;28;20236;-88
2023/01/03 12:04:47;;;;;;;10.30;5.38;;;;;;;;;;4965474;28;20747;-88
2023/01/03 12:07:15;;;;;;;7.70;6.53;;;;;;;;;;5006781;28;20311;-90
2023/01/03 12:09:47;;;;;;;9.32;6.43;;;;;;;;;;5011148;28;20756;-88
2023/01/03 12:12:31;;;;;;;13.02;6.57;;;;;;;;;;5016948;28;20228;-87
2023/01/03 12:15:03;;;;;;;6.22;5.05;;;;;;;;;;5017571;28;20242;-90
2023/01/03 12:17:37;;;;;;;9.45;5.50;;;;;;;;;;5019514;28;20237;-88
2023/01/03 12:20:11;;;;;;;6.70;6.13;;;;;;;;;;5017949;28;20227;-88
2023/01/03 12:22:40;;;;;;;8.55;7.35;;;;;;;;;;5018562;28;20221;-89
2023/01/03 12:25:18;;;;;;;5.88;4.32;;;;;;;;;;5016932;28;20244;-89
2023/01/03 12:27:53;;;;;;;5.47;5.00;;;;;;;;;;5020369;28;20224;-87
2023/01/03 12:30:42;;;;;;;5.78;4.70;;;;;;;;;;5020628;28;20231;-88
2023/01/03 12:33:22;;;;;;;5.20;4.47;;;;;;;;;;5021086;28;20226;-90
2023/01/03 12:35:53;;;;;;;6.45;5.78;;;;;;;;;;5015704;28;20246;-90
2023/01/03 12:38:24;;;;;;;6.03;5.60;;;;;;;;;;4998292;28;20216;-89
2023/01/03 12:41:00;;;;;;;8.27;6.22;;;;;;;;;;4998683;28;20666;-89
2023/01/03 12:43:33;;;;;;;9.13;4.28;;;;;;;;;;4999722;28;20224;-90
2023/01/03 12:46:10;;;;;;;7.38;5.93;;;;;;;;;;4997895;28;20262;-90
2023/01/03 12:48:57;;;;;;;9.70;8.27;;;;;;;;;;4997580;28;20223;-90
2023/01/03 12:51:41;;;;;;;5.95;5.40;;;;;;;;;;4996931;28;20276;-90
2023/01/03 12:54:26;;;;;;;10.00;7.18;;;;;;;;;;4997241;28;20591;-91
2023/01/03 12:57:04;;;;;;;5.57;5.10;;;;;;;;;;4996934;28;20659;-87
2023/01/03 12:59:54;;;;;;;5.05;4.70;;;;;;;;;;4996930;28;20191;-88
2023/01/03 13:02:30;;;;;;;9.48;4.50;;;;;;;;;;4996644;28;20287;-90
2023/01/03 13:05:16;;;;;;;6.47;4.82;;;;;;;;;;5001550;28;20282;-89
2023/01/03 13:07:47;;;;;;;3.75;3.63;;;;;;;;;;5002063;28;20206;-89
2023/01/03 13:10:18;;;;;;;2.92;2.83;;;;;;;;;;5014088;28;20242;-88
2023/01/03 13:12:52;;;;;;;5.75;3.50;;;;;;;;;;5015309;28;20198;-89
2023/01/03 13:15:25;;;;;;;2.65;2.53;;;;;;;;;;5015391;28;20204;-87
2023/01/03 13:18:03;;;;;;;5.18;2.92;;;;;;;;;;5013075;28;20207;-89
2023/01/03 13:20:35;;;;;;;9.07;2.33;;;;;;;;;;5013612;28;20196;-89
2023/01/03 13:23:24;;;;;;;1.83;1.83;;;;;;;;;;5015010;28;20195;-89
2023/01/03 13:26:09;;;;;;;3.10;2.17;;;;;;;;;;5017514;28;20232;-89
2023/01/03 13:28:38;;;;;;;0.35;0.35;;;;;;;;;;5017995;28;20195;-90
2023/01/03 13:31:36;;;;;;;1.42;1.42;;;;;;;;;;5003408;28;20286;-90
2023/01/03 13:34:26;;;;;;;1.13;1.13;;;;;;;;;;4999255;28;20211;-90
2023/01/03 13:37:16;;;;;;;1.00;1.00;;;;;;;;;;4995420;28;20203;-89
2023/01/03 13:40:12;;;;;;;0.10;0.10;;;;;;;;;;5000997;28;20195;-90
2023/01/03 13:42:41;;;;;;;0.70;0.70;;;;;;;;;;4964323;28;20245;-89
2023/01/03 13:45:33;;;;;;;6.03;0.93;;;;;;;;;;5000329;28;20250;-89
2023/01/03 13:48:14;;;;;;;1.38;0.85;;;;;;;;;;4982999;28;20284;-89
2023/01/03 13:51:06;;;;;;;1.35;1.23;;;;;;;;;;4997461;28;20219;-90
2023/01/03 13:53:41;;;;;;;1.52;1.48;;;;;;;;;;4997212;28;20205;-90
2023/01/03 13:56:28;;;;;;;0.95;0.43;;;;;;;;;;4996828;28;20595;-88
2023/01/03 13:59:04;;;;;;;5.18;2.30;;;;;;;;;;4996645;28;20204;-89
2023/01/03 14:04:45;;;;;;;0.38;0.38;;;;;;;;;;4999174;28;20235;-89
2023/01/03 14:07:37;;;;;;;0.40;0.40;;;;;;;;;;4998778;28;20242;-90
2023/01/03 14:10:33;;;;;;;0.52;0.30;;;;;;;;;;4982898;28;20254;-87
2023/01/03 14:13:22;;;;;;;0.87;0.87;;;;;;;;;;4996688;28;20816;-89
2023/01/03 14:15:57;;;;;;;1.03;0.70;;;;;;;;;;4998717;28;20238;-90
2023/01/03 14:18:27;;;;;;;5.17;1.07;;;;;;;;;;4997466;28;20286;-91
2023/01/03 14:20:56;;;;;;;3.43;1.93;;;;;;;;;;4996300;28;20204;-90
2023/01/03 14:23:27;;;;;;;0.53;0.53;;;;;;;;;;4996237;28;20200;-91
2023/01/03 14:25:58;;;;;;;0.73;0.73;;;;;;;;;;4998284;28;20287;-90
2023/01/03 14:28:35;;;;;;;3.70;0.50;;;;;;;;;;4999290;28;20219;-89
2023/01/03 14:31:09;;;;;;;0.67;0.60;;;;;;;;;;4996830;28;20261;-89
2023/01/03 14:33:41;;;;;;;3.10;1.80;;;;;;;;;;4995109;28;20281;-90
2023/01/03 14:36:13;;;;;;;0.80;0.70;;;;;;;;;;4995009;28;20626;-89
2023/01/03 14:38:47;;;;;;;0.40;0.30;;;;;;;;;;4996393;28;20694;-90
2023/01/03 14:41:26;;;;;;;1.03;0.97;;;;;;;;;;4998076;28;20316;-91
2023/01/03 14:44:01;;;;;;;0.40;0.40;;;;;;;;;;4995912;28;20207;-88
2023/01/03 14:46:36;;;;;;;1.50;1.33;;;;;;;;;;4995387;28;20596;-89
2023/01/03 14:49:09;;;;;;;0.47;0.47;;;;;;;;;;4995252;28;20631;-91
2023/01/03 14:51:37;;;;;;;1.10;1.10;;;;;;;;;;4995131;28;20207;-91
2023/01/03 14:54:06;;;;;;;2.03;1.90;;;;;;;;;;4995135;28;20198;-90
2023/01/03 14:56:36;;;;;;;1.37;1.27;;;;;;;;;;4994682;28;20229;-91
2023/01/03 14:59:07;;;;;;;2.37;1.00;;;;;;;;;;4994231;28;20199;-90
2023/01/03 15:01:37;;;;;;;0.50;0.50;;;;;;;;;;4995185;28;20206;-90
2023/01/03 15:04:06;;;;;;;1.53;1.53;;;;;;;;;;4994775;28;20201;-88
2023/01/03 15:06:36;;;;;;;3.67;1.20;;;;;;;;;;4996229;28;20234;-89
2023/01/03 15:09:17;;;;;;;6.00;2.80;;;;;;;;;;4994696;28;20225;-88
2023/01/03 15:11:58;;;;;;;2.03;1.87;;;;;;;;;;4995113;28;20769;-89
2023/01/03 15:14:27;;;;;;;2.07;1.83;;;;;;;;;;5001307;28;20290;-89
2023/01/03 15:17:05;;;;;;;1.13;1.13;;;;;;;;;;5011016;28;20187;-90
2023/01/03 15:19:37;;;;;;;0.83;0.83;;;;;;;;;;4998749;28;20518;-90
2023/01/03 15:22:09;;;;;;;0.80;0.80;;;;;;;;;;4997171;28;20204;-90
2023/01/03 15:24:41;;;;;;;2.17;0.83;;;;;;;;;;4996404;28;20271;-91
2023/01/03 15:27:34;;;;;;;0.57;0.57;;;;;;;;;;5001961;28;20225;-89
2023/01/03 15:30:29;;;;;;;3.40;1.70;;;;;;;;;;4998685;28;20291;-89
2023/01/03 15:33:03;;;;;;;0.97;0.47;;;;;;;;;;4983643;28;20220;-90
2023/01/03 15:35:33;;;;;;;1.30;0.90;;;;;;;;;;4996488;28;20266;-90
2023/01/03 15:38:04;;;;;;;0.73;0.40;;;;;;;;;;4995473;28;20208;-88
2023/01/03 15:40:33;;;;;;;0.50;0.50;;;;;;;;;;4995693;28;20684;-91
2023/01/03 15:43:22;;;;;;;4.53;1.53;;;;;;;;;;4995907;28;20233;-89
2023/01/03 15:46:03;;;;;;;0.43;0.43;;;;;;;;;;4996081;28;20237;-89
2023/01/03 15:48:48;;;;;;;1.20;1.20;;;;;;;;;;4996534;28;20597;-90
2023/01/03 15:51:15;;;;;;;1.33;1.23;;;;;;;;;;4996728;28;20694;-90
2023/01/03 15:53:47;;;;;;;1.00;1.00;;;;;;;;;;4996256;28;20203;-91
2023/01/03 15:56:22;;;;;;;1.20;0.97;;;;;;;;;;4995819;28;20658;-89
2023/01/03 15:58:52;;;;;;;2.53;1.13;;;;;;;;;;4996735;28;20193;-90
2023/01/03 16:01:20;;;;;;;4.90;0.90;;;;;;;;;;4999964;28;20261;-90
2023/01/03 16:03:52;;;;;;;2.83;2.57;;;;;;;;;;5002410;28;20197;-90
2023/01/03 16:06:22;;;;;;;5.47;1.90;;;;;;;;;;5005074;28;20237;-89
2023/01/03 16:08:51;;;;;;;2.40;2.30;;;;;;;;;;5009129;28;20219;-87
2023/01/03 16:11:26;;;;;;;4.00;1.97;;;;;;;;;;5003074;28;20206;-91
2023/01/03 16:13:56;;;;;;;2.50;2.20;;;;;;;;;;4996106;28;20697;-90
2023/01/03 16:16:26;;;;;;;1.20;1.10;;;;;;;;;;4995336;28;20206;-90
2023/01/03 16:19:04;;;;;;;1.23;1.23;;;;;;;;;;4996327;28;20233;-89
2023/01/03 16:21:36;;;;;;;1.47;1.17;;;;;;;;;;4996386;28;20732;-89
2023/01/03 16:24:19;;;;;;;1.73;0.77;;;;;;;;;;5006609;28;20579;-87
2023/01/03 16:26:49;;;;;;;2.23;1.10;;;;;;;;;;4998882;28;20232;-89
2023/01/03 16:29:20;;;;;;;0.77;0.77;;;;;;;;;;4994219;28;20735;-90
2023/01/03 16:31:50;;;;;;;1.20;1.20;;;;;;;;;;4993996;28;20256;-89
2023/01/03 16:34:21;;;;;;;3.27;0.53;;;;;;;;;;4993703;28;20238;-90
2023/01/03 16:36:53;;;;;;;0.60;0.43;;;;;;;;;;4995622;28;20195;-89
2023/01/03 16:39:23;;;;;;;1.23;0.97;;;;;;;;;;4996117;28;20672;-90
2023/01/03 16:44:35;;;;;;;2.00;0.63;;;;;;;;;;4994432;28;20203;-90